Time;durP1;ratioP1;P1;durP2;ratioP2;P2;SDS_P1;SDS_P2;PMS_P1;PMS_P2;Temp;Humidity;BMP_temperature;BMP_pressure;BME280_temperature;BME280_humidity;BME280_pressure;Samples;Min_cycle;Max_cycle;Signal;HPM_P1;HPM_P2
2021/07/10 00:00:37;;;;;;;5.05;4.10;;;;;;;;;;5016463;28;20087;-76
2021/07/10 00:03:05;;;;;;;3.42;3.05;;;;;;;;;;5016858;28;20053;-76
2021/07/10 00:05:31;;;;;;;4.22;3.83;;;;;;;;;;5017067;28;20034;-76
2021/07/10 00:07:57;;;;;;;4.70;4.30;;;;;;;;;;5016900;28;20041;-76
2021/07/10 00:10:23;;;;;;;4.03;3.70;;;;;;;;;;5044255;28;20017;-75
2021/07/10 00:12:49;;;;;;;3.80;3.50;;;;;;;;;;5052231;28;20087;-77
2021/07/10 00:15:20;;;;;;;4.38;3.85;;;;;;;;;;5056677;28;20020;-77
2021/07/10 00:17:46;;;;;;;4.38;3.97;;;;;;;;;;5055084;28;20119;-76
2021/07/10 00:20:12;;;;;;;4.50;4.10;;;;;;;;;;5038484;28;20032;-76
2021/07/10 00:22:39;;;;;;;5.72;3.97;;;;;;;;;;5036025;28;20036;-77
2021/07/10 00:25:10;;;;;;;6.15;4.10;;;;;;;;;;5036455;28;20030;-75
2021/07/10 00:27:37;;;;;;;5.03;3.85;;;;;;;;;;5036219;28;20033;-75
2021/07/10 00:30:03;;;;;;;4.00;3.60;;;;;;;;;;5023614;28;20026;-76
2021/07/10 00:32:29;;;;;;;3.85;3.55;;;;;;;;;;5017103;28;20108;-76
2021/07/10 00:34:55;;;;;;;4.15;3.75;;;;;;;;;;5016595;28;20056;-76
2021/07/10 00:37:22;;;;;;;4.15;3.75;;;;;;;;;;5016299;28;20033;-75
2021/07/10 00:39:48;;;;;;;4.88;4.38;;;;;;;;;;5032274;28;20108;-75
2021/07/10 00:42:17;;;;;;;6.43;4.30;;;;;;;;;;5049385;28;20038;-76
2021/07/10 00:44:43;;;;;;;4.43;4.03;;;;;;;;;;5036742;28;20342;-76
2021/07/10 00:47:10;;;;;;;3.85;3.45;;;;;;;;;;5019213;28;20513;-76
2021/07/10 00:49:37;;;;;;;3.67;3.38;;;;;;;;;;5035742;28;20030;-75
2021/07/10 00:52:03;;;;;;;4.32;3.63;;;;;;;;;;5037863;28;20449;-76
2021/07/10 00:54:29;;;;;;;4.35;3.90;;;;;;;;;;5037698;28;20021;-76
2021/07/10 00:56:58;;;;;;;4.00;3.60;;;;;;;;;;5037309;28;20100;-76
2021/07/10 00:59:25;;;;;;;4.22;3.83;;;;;;;;;;5035607;28;20032;-77
2021/07/10 01:01:51;;;;;;;4.15;3.85;;;;;;;;;;5018058;28;20111;-76
2021/07/10 01:04:17;;;;;;;4.25;3.30;;;;;;;;;;5015867;28;20022;-76
2021/07/10 01:06:43;;;;;;;4.00;3.53;;;;;;;;;;5015594;28;20211;-78
2021/07/10 01:09:09;;;;;;;3.95;3.55;;;;;;;;;;5027124;28;20043;-76
2021/07/10 01:11:35;;;;;;;4.50;3.80;;;;;;;;;;5046063;28;20616;-75
2021/07/10 01:14:02;;;;;;;3.45;3.15;;;;;;;;;;5055455;28;20053;-76
2021/07/10 01:16:28;;;;;;;3.75;3.35;;;;;;;;;;5055381;28;20393;-77
2021/07/10 01:18:54;;;;;;;3.83;3.53;;;;;;;;;;5055531;28;20094;-78
2021/07/10 01:21:20;;;;;;;3.50;3.20;;;;;;;;;;5045453;28;20478;-76
2021/07/10 01:23:48;;;;;;;3.63;3.33;;;;;;;;;;5034794;28;20396;-76
2021/07/10 01:26:14;;;;;;;3.80;3.50;;;;;;;;;;5035721;28;20032;-77
2021/07/10 01:28:40;;;;;;;5.72;3.78;;;;;;;;;;5036086;28;20482;-77
2021/07/10 01:31:06;;;;;;;5.18;3.97;;;;;;;;;;5032792;28;20498;-77
2021/07/10 01:33:32;;;;;;;5.20;4.40;;;;;;;;;;5017632;28;20530;-77
2021/07/10 01:35:58;;;;;;;5.15;4.57;;;;;;;;;;5035831;28;20029;-74
2021/07/10 01:38:24;;;;;;;4.93;4.43;;;;;;;;;;5035488;28;20030;-76
2021/07/10 01:40:50;;;;;;;5.15;4.32;;;;;;;;;;5044107;28;20025;-76
2021/07/10 01:43:16;;;;;;;4.38;3.60;;;;;;;;;;5035308;28;20037;-76
2021/07/10 01:45:43;;;;;;;5.40;4.90;;;;;;;;;;5036319;28;20091;-76
2021/07/10 01:48:13;;;;;;;5.55;4.53;;;;;;;;;;5036200;28;20361;-75
2021/07/10 01:50:40;;;;;;;5.03;4.30;;;;;;;;;;5035924;28;20027;-76
2021/07/10 01:53:06;;;;;;;3.90;3.60;;;;;;;;;;5022043;28;20033;-76
2021/07/10 01:55:32;;;;;;;4.22;3.85;;;;;;;;;;4998422;28;20028;-76
2021/07/10 01:57:59;;;;;;;4.28;3.63;;;;;;;;;;5015915;28;20037;-76
2021/07/10 02:00:27;;;;;;;4.57;3.75;;;;;;;;;;4998678;28;20033;-76
2021/07/10 02:02:54;;;;;;;4.05;2.97;;;;;;;;;;5025549;28;20085;-76
2021/07/10 02:05:21;;;;;;;5.45;3.05;;;;;;;;;;5035908;28;20036;-76
2021/07/10 02:07:47;;;;;;;3.85;3.50;;;;;;;;;;5036371;28;20033;-76
2021/07/10 02:10:14;;;;;;;3.65;3.35;;;;;;;;;;5036978;28;20021;-75
2021/07/10 02:12:41;;;;;;;3.50;3.20;;;;;;;;;;5044177;28;20034;-76
2021/07/10 02:15:07;;;;;;;3.80;3.50;;;;;;;;;;5035203;28;20037;-76
2021/07/10 02:17:33;;;;;;;2.88;2.67;;;;;;;;;;5036296;28;20405;-76
2021/07/10 02:19:59;;;;;;;3.45;2.53;;;;;;;;;;5036658;28;20360;-76
2021/07/10 02:22:26;;;;;;;3.28;3.00;;;;;;;;;;5036245;28;20429;-75
2021/07/10 02:24:52;;;;;;;3.05;2.85;;;;;;;;;;5025517;28;20087;-76
2021/07/10 02:27:19;;;;;;;2.88;2.67;;;;;;;;;;5028537;28;20034;-74
2021/07/10 02:29:45;;;;;;;2.90;2.70;;;;;;;;;;5053312;28;20021;-75
2021/07/10 02:32:11;;;;;;;3.22;2.80;;;;;;;;;;5052810;28;20021;-74
2021/07/10 02:34:38;;;;;;;3.42;3.17;;;;;;;;;;5052323;28;20033;-75
2021/07/10 02:37:04;;;;;;;2.97;2.78;;;;;;;;;;5052595;28;20029;-75
2021/07/10 02:39:30;;;;;;;3.58;3.10;;;;;;;;;;5057022;28;20024;-75
2021/07/10 02:41:56;;;;;;;2.88;2.67;;;;;;;;;;5064317;28;20040;-74
2021/07/10 02:44:22;;;;;;;3.22;2.92;;;;;;;;;;5061877;28;20053;-75
2021/07/10 02:46:48;;;;;;;2.90;2.70;;;;;;;;;;5053483;28;20081;-75
2021/07/10 02:49:14;;;;;;;2.88;2.65;;;;;;;;;;5051778;28;20026;-74
2021/07/10 02:51:40;;;;;;;2.72;2.53;;;;;;;;;;5036921;28;20028;-75
2021/07/10 02:54:06;;;;;;;2.10;2.00;;;;;;;;;;5047215;28;20030;-76
2021/07/10 02:56:32;;;;;;;2.50;2.30;;;;;;;;;;5004741;28;20022;-77
2021/07/10 02:58:58;;;;;;;3.78;2.13;;;;;;;;;;5015537;28;20041;-76
2021/07/10 03:01:24;;;;;;;2.33;2.20;;;;;;;;;;5015752;28;20026;-77
2021/07/10 03:03:50;;;;;;;2.53;2.33;;;;;;;;;;5016039;28;20030;-77
2021/07/10 03:08:45;;;;;;;2.47;2.28;;;;;;;;;;5004576;28;20050;-79
2021/07/10 03:11:12;;;;;;;2.60;2.40;;;;;;;;;;5010814;28;20022;-79
2021/07/10 03:13:39;;;;;;;2.17;2.08;;;;;;;;;;5017841;28;20018;-79
2021/07/10 03:16:05;;;;;;;2.08;1.85;;;;;;;;;;5003419;28;20029;-79
2021/07/10 03:18:31;;;;;;;3.10;2.90;;;;;;;;;;5000432;28;20030;-78
2021/07/10 03:20:57;;;;;;;2.30;2.20;;;;;;;;;;5001727;28;20061;-79
2021/07/10 03:23:23;;;;;;;3.15;2.30;;;;;;;;;;5003912;28;20034;-78
2021/07/10 03:25:49;;;;;;;2.83;2.63;;;;;;;;;;5002993;28;20030;-78
2021/07/10 03:28:15;;;;;;;2.80;2.50;;;;;;;;;;5003526;28;20042;-78
2021/07/10 03:30:42;;;;;;;2.72;2.53;;;;;;;;;;5000796;28;20030;-78
2021/07/10 03:33:08;;;;;;;2.72;2.53;;;;;;;;;;5001369;28;20018;-78
2021/07/10 03:35:34;;;;;;;3.10;2.80;;;;;;;;;;4999547;28;20026;-79
2021/07/10 03:38:00;;;;;;;2.60;2.40;;;;;;;;;;5006532;28;20395;-78
2021/07/10 03:40:28;;;;;;;3.10;2.80;;;;;;;;;;5021814;28;20025;-78
2021/07/10 03:42:54;;;;;;;2.75;2.58;;;;;;;;;;5020145;28;20034;-80
2021/07/10 03:45:20;;;;;;;3.00;2.67;;;;;;;;;;5004930;28;20040;-78
2021/07/10 03:47:47;;;;;;;3.80;2.60;;;;;;;;;;5005225;28;20066;-79
2021/07/10 03:50:14;;;;;;;2.58;2.38;;;;;;;;;;5003474;28;20027;-79
2021/07/10 03:52:40;;;;;;;2.42;2.22;;;;;;;;;;5003155;28;20564;-79
2021/07/10 03:55:08;;;;;;;4.18;2.22;;;;;;;;;;5002654;28;20112;-79
2021/07/10 03:57:34;;;;;;;2.55;2.35;;;;;;;;;;5003409;28;20135;-79
2021/07/10 04:00:00;;;;;;;2.45;2.28;;;;;;;;;;5001958;28;20061;-79
2021/07/10 04:02:26;;;;;;;2.22;2.03;;;;;;;;;;5017274;28;20030;-79
2021/07/10 04:04:52;;;;;;;2.20;2.08;;;;;;;;;;5002413;28;20109;-79
2021/07/10 04:07:19;;;;;;;2.08;1.98;;;;;;;;;;5014132;28;20042;-79
2021/07/10 04:09:45;;;;;;;1.90;1.80;;;;;;;;;;4997893;28;20026;-79
2021/07/10 04:12:11;;;;;;;2.10;2.00;;;;;;;;;;5009736;28;20485;-79
2021/07/10 04:14:37;;;;;;;1.90;1.80;;;;;;;;;;5020036;28;20022;-79
2021/07/10 04:17:06;;;;;;;1.80;1.70;;;;;;;;;;5003981;28;20086;-79
2021/07/10 04:19:32;;;;;;;2.53;2.17;;;;;;;;;;4993836;28;20019;-79
2021/07/10 04:21:59;;;;;;;2.95;2.13;;;;;;;;;;4985906;28;20030;-79
2021/07/10 04:24:25;;;;;;;2.40;2.20;;;;;;;;;;4996066;28;20029;-78
2021/07/10 04:26:51;;;;;;;2.10;2.00;;;;;;;;;;4993987;28;20105;-79
2021/07/10 04:29:17;;;;;;;2.10;2.00;;;;;;;;;;4988933;28;20027;-79
2021/07/10 04:31:43;;;;;;;1.98;1.88;;;;;;;;;;4988587;28;20434;-80
2021/07/10 04:34:09;;;;;;;2.45;2.25;;;;;;;;;;4986540;28;20042;-80
2021/07/10 04:36:35;;;;;;;2.60;2.40;;;;;;;;;;4992003;28;20026;-80
2021/07/10 04:39:01;;;;;;;3.80;2.88;;;;;;;;;;4986516;28;20035;-80
2021/07/10 04:41:27;;;;;;;3.38;2.50;;;;;;;;;;5002467;28;20026;-82
2021/07/10 04:43:53;;;;;;;3.13;2.90;;;;;;;;;;5022646;28;20026;-80
2021/07/10 04:46:19;;;;;;;3.30;2.58;;;;;;;;;;5021462;28;20030;-79
2021/07/10 04:48:45;;;;;;;3.47;2.72;;;;;;;;;;5021572;28;20049;-79
2021/07/10 04:51:11;;;;;;;2.78;2.55;;;;;;;;;;5000886;28;20046;-80
2021/07/10 04:53:37;;;;;;;3.05;2.65;;;;;;;;;;4983385;28;20023;-80
2021/07/10 04:56:03;;;;;;;2.50;2.30;;;;;;;;;;4985042;28;20027;-80
2021/07/10 04:58:29;;;;;;;3.33;2.38;;;;;;;;;;4983036;28;20106;-79
2021/07/10 05:00:55;;;;;;;2.10;2.00;;;;;;;;;;4983394;28;20050;-79
2021/07/10 05:03:22;;;;;;;4.10;1.92;;;;;;;;;;4997613;28;20086;-79
2021/07/10 05:05:48;;;;;;;2.20;2.10;;;;;;;;;;4984267;28;20027;-79
2021/07/10 05:08:14;;;;;;;3.88;2.53;;;;;;;;;;4984547;28;20100;-80
2021/07/10 05:10:40;;;;;;;3.95;2.70;;;;;;;;;;5011335;28;20098;-80
2021/07/10 05:13:08;;;;;;;2.20;2.05;;;;;;;;;;5026280;28;20025;-80
2021/07/10 05:15:34;;;;;;;2.42;2.22;;;;;;;;;;5022432;28;20492;-79
2021/07/10 05:18:00;;;;;;;1.80;1.70;;;;;;;;;;5022657;28;20148;-79
2021/07/10 05:20:26;;;;;;;2.38;1.60;;;;;;;;;;5022906;28;20025;-80
2021/07/10 05:22:52;;;;;;;2.05;1.20;;;;;;;;;;4992259;28;20049;-80
2021/07/10 05:25:18;;;;;;;1.20;1.20;;;;;;;;;;4983128;28;20030;-80
2021/07/10 05:27:44;;;;;;;1.27;1.27;;;;;;;;;;4997887;28;20027;-81
2021/07/10 05:30:11;;;;;;;1.55;1.27;;;;;;;;;;4998840;28;20105;-81
2021/07/10 05:32:38;;;;;;;0.77;0.77;;;;;;;;;;4994098;28;20109;-81
2021/07/10 05:35:05;;;;;;;0.90;0.90;;;;;;;;;;5001832;28;20030;-79
2021/07/10 05:37:31;;;;;;;1.20;1.20;;;;;;;;;;5001640;28;20387;-79
2021/07/10 05:39:57;;;;;;;1.17;1.17;;;;;;;;;;5009591;28;20037;-79
2021/07/10 05:42:23;;;;;;;1.30;1.20;;;;;;;;;;5002051;28;20026;-80
2021/07/10 05:44:49;;;;;;;1.25;1.13;;;;;;;;;;4982455;28;20074;-79
2021/07/10 05:47:15;;;;;;;1.40;1.30;;;;;;;;;;4982560;28;20034;-78
2021/07/10 05:49:41;;;;;;;1.33;1.27;;;;;;;;;;4981187;28;20101;-79
2021/07/10 05:52:07;;;;;;;2.60;1.90;;;;;;;;;;4996670;28;20038;-78
2021/07/10 05:54:33;;;;;;;2.60;1.98;;;;;;;;;;5003416;28;20501;-80
2021/07/10 05:56:59;;;;;;;2.15;2.00;;;;;;;;;;5001732;28;20030;-80
2021/07/10 05:59:25;;;;;;;2.08;1.70;;;;;;;;;;5015367;28;20100;-80
2021/07/10 06:01:52;;;;;;;1.80;1.70;;;;;;;;;;5001173;28;20403;-80
2021/07/10 06:04:18;;;;;;;1.30;1.30;;;;;;;;;;5001392;28;20031;-81
2021/07/10 06:06:44;;;;;;;2.50;2.30;;;;;;;;;;4982553;28;20030;-80
2021/07/10 06:09:10;;;;;;;2.42;2.22;;;;;;;;;;4991426;28;20038;-80
2021/07/10 06:11:36;;;;;;;1.77;1.67;;;;;;;;;;5026891;28;20085;-80
2021/07/10 06:14:08;;;;;;;1.85;1.75;;;;;;;;;;4991691;28;20027;-81
2021/07/10 06:16:33;;;;;;;;;;;;;;;;;;4983685;28;20099;-81
2021/07/10 06:18:59;;;;;;;2.97;2.60;;;;;;;;;;4982261;28;19931;-79
2021/07/10 06:21:25;;;;;;;1.67;1.58;;;;;;;;;;4981557;28;20031;-79
2021/07/10 06:23:53;;;;;;;1.60;1.60;;;;;;;;;;4981860;28;20038;-79
2021/07/10 06:26:20;;;;;;;1.63;1.52;;;;;;;;;;4982633;28;20037;-79
2021/07/10 06:28:49;;;;;;;6.72;2.08;;;;;;;;;;4985755;28;20030;-79
2021/07/10 06:31:15;;;;;;;2.13;1.80;;;;;;;;;;4983834;28;20019;-79
2021/07/10 06:33:41;;;;;;;2.03;1.92;;;;;;;;;;5012443;28;20074;-80
2021/07/10 06:36:07;;;;;;;2.22;2.00;;;;;;;;;;5012308;28;20084;-80
2021/07/10 06:38:33;;;;;;;1.70;1.60;;;;;;;;;;5011039;28;20030;-80
2021/07/10 06:41:02;;;;;;;1.42;1.40;;;;;;;;;;5017719;28;20141;-80
2021/07/10 06:43:28;;;;;;;3.60;2.78;;;;;;;;;;5032778;28;20040;-80
2021/07/10 06:45:55;;;;;;;2.90;2.70;;;;;;;;;;4996346;28;20027;-80
2021/07/10 06:48:21;;;;;;;2.45;2.25;;;;;;;;;;4989334;28;20086;-80
2021/07/10 06:50:47;;;;;;;1.90;1.80;;;;;;;;;;4984442;28;20023;-80
2021/07/10 06:53:13;;;;;;;2.80;2.60;;;;;;;;;;4985551;28;20058;-80
2021/07/10 06:55:39;;;;;;;2.60;2.40;;;;;;;;;;4997956;28;20034;-79
2021/07/10 06:58:05;;;;;;;3.70;2.47;;;;;;;;;;5000693;28;20090;-79
2021/07/10 07:00:31;;;;;;;1.90;1.80;;;;;;;;;;5001606;28;20458;-79
2021/07/10 07:02:58;;;;;;;2.15;1.88;;;;;;;;;;4999860;28;20030;-80
2021/07/10 07:05:24;;;;;;;3.10;2.58;;;;;;;;;;5006914;28;20257;-79
2021/07/10 07:07:50;;;;;;;3.50;2.40;;;;;;;;;;4981332;28;20045;-79
2021/07/10 07:10:16;;;;;;;2.72;2.53;;;;;;;;;;5020862;28;20109;-79
2021/07/10 07:12:42;;;;;;;2.22;2.00;;;;;;;;;;5019782;28;20033;-80
2021/07/10 07:15:16;;;;;;;2.88;2.67;;;;;;;;;;5022191;28;20037;-81
2021/07/10 07:17:42;;;;;;;3.33;2.50;;;;;;;;;;5003739;28;20026;-80
2021/07/10 07:20:12;;;;;;;2.33;2.20;;;;;;;;;;5003006;28;20038;-81
2021/07/10 07:22:38;;;;;;;2.33;2.10;;;;;;;;;;5001614;28;20026;-78
2021/07/10 07:25:05;;;;;;;2.78;2.58;;;;;;;;;;5014856;28;20034;-78
2021/07/10 07:27:31;;;;;;;5.90;3.45;;;;;;;;;;5001014;28;20034;-79
2021/07/10 07:29:57;;;;;;;3.85;3.50;;;;;;;;;;4999957;28;20054;-78
2021/07/10 07:32:23;;;;;;;8.07;4.00;;;;;;;;;;4999085;28;20034;-79
2021/07/10 07:34:51;;;;;;;3.35;3.05;;;;;;;;;;4999299;28;20030;-79
2021/07/10 07:37:18;;;;;;;4.38;3.95;;;;;;;;;;4984829;28;20046;-79
2021/07/10 07:39:46;;;;;;;4.90;4.40;;;;;;;;;;4993874;28;20038;-79
2021/07/10 07:42:13;;;;;;;3.97;3.58;;;;;;;;;;5022203;28;20085;-79
2021/07/10 07:44:40;;;;;;;9.18;4.15;;;;;;;;;;4999826;28;20038;-79
2021/07/10 07:47:07;;;;;;;5.40;4.88;;;;;;;;;;4990803;28;20372;-79
2021/07/10 07:49:33;;;;;;;8.38;5.25;;;;;;;;;;4997138;28;20027;-79
2021/07/10 07:52:00;;;;;;;5.38;4.75;;;;;;;;;;4980273;28;20596;-79
2021/07/10 07:54:27;;;;;;;4.45;4.05;;;;;;;;;;4995180;28;20170;-80
2021/07/10 07:56:53;;;;;;;3.28;2.97;;;;;;;;;;5001814;28;20019;-80
2021/07/10 07:59:20;;;;;;;3.38;3.05;;;;;;;;;;4999520;28;20058;-79
2021/07/10 08:01:46;;;;;;;6.75;4.45;;;;;;;;;;5015270;28;20053;-81
2021/07/10 08:04:14;;;;;;;3.97;3.45;;;;;;;;;;5015741;28;20038;-80
2021/07/10 08:06:40;;;;;;;4.30;3.90;;;;;;;;;;5016829;28;20134;-79
2021/07/10 08:09:06;;;;;;;3.42;3.17;;;;;;;;;;4998347;28;20073;-80
2021/07/10 08:11:32;;;;;;;4.53;4.05;;;;;;;;;;5013577;28;20077;-80
2021/07/10 08:13:58;;;;;;;5.03;3.90;;;;;;;;;;5000675;28;20029;-80
2021/07/10 08:16:25;;;;;;;6.45;4.15;;;;;;;;;;5004801;28;20050;-80
2021/07/10 08:18:51;;;;;;;3.72;3.40;;;;;;;;;;5002702;28;20029;-79
2021/07/10 08:21:17;;;;;;;3.95;3.60;;;;;;;;;;5001466;28;20030;-79
2021/07/10 08:23:43;;;;;;;3.53;3.10;;;;;;;;;;5003905;28;20010;-80
2021/07/10 08:26:10;;;;;;;4.40;4.00;;;;;;;;;;5017181;28;20053;-80
2021/07/10 08:28:36;;;;;;;5.53;4.28;;;;;;;;;;5006361;28;20110;-79
2021/07/10 08:31:03;;;;;;;4.63;4.18;;;;;;;;;;4999028;28;20349;-79
2021/07/10 08:33:29;;;;;;;3.85;3.50;;;;;;;;;;4997446;28;20019;-79
2021/07/10 08:35:55;;;;;;;4.32;3.92;;;;;;;;;;4981821;28;20077;-80
2021/07/10 08:38:21;;;;;;;3.75;3.28;;;;;;;;;;4984395;28;20031;-79
2021/07/10 08:40:47;;;;;;;3.00;2.80;;;;;;;;;;5012518;28;20053;-79
2021/07/10 08:43:13;;;;;;;3.65;3.35;;;;;;;;;;5020353;28;20034;-80
2021/07/10 08:45:39;;;;;;;4.80;4.40;;;;;;;;;;5021515;28;20501;-78
2021/07/10 08:48:06;;;;;;;4.38;3.08;;;;;;;;;;5018415;28;20030;-79
2021/07/10 08:50:33;;;;;;;7.07;4.22;;;;;;;;;;4981537;28;20053;-79
2021/07/10 08:52:59;;;;;;;3.97;3.47;;;;;;;;;;4995906;28;20031;-79
2021/07/10 08:55:25;;;;;;;3.45;3.08;;;;;;;;;;4996894;28;20027;-79
2021/07/10 08:57:52;;;;;;;4.78;3.80;;;;;;;;;;4982226;28;20476;-79
2021/07/10 09:00:20;;;;;;;4.00;3.70;;;;;;;;;;4997895;28;20022;-79
2021/07/10 09:02:48;;;;;;;4.13;3.22;;;;;;;;;;5000838;28;20372;-80
2021/07/10 09:05:15;;;;;;;4.60;2.85;;;;;;;;;;5001213;28;20033;-80
2021/07/10 09:08:00;;;;;;;3.67;3.38;;;;;;;;;;5016571;22;20034;-75
2021/07/10 09:10:35;;;;;;;4.50;3.03;;;;;;;;;;4996328;28;20058;-76
2021/07/10 09:13:01;;;;;;;3.80;3.50;;;;;;;;;;4997395;28;20019;-77
2021/07/10 09:15:27;;;;;;;4.22;3.83;;;;;;;;;;4994921;28;20027;-76
2021/07/10 09:17:54;;;;;;;5.57;3.83;;;;;;;;;;4994782;28;20410;-76
2021/07/10 09:20:21;;;;;;;4.45;3.58;;;;;;;;;;4994711;28;20501;-77
2021/07/10 09:22:47;;;;;;;3.70;3.40;;;;;;;;;;4994503;28;20057;-77
2021/07/10 09:25:23;;;;;;;2.67;2.47;;;;;;;;;;4994602;28;20030;-77
2021/07/10 09:27:50;;;;;;;3.25;2.95;;;;;;;;;;4999215;28;20058;-76
2021/07/10 09:30:16;;;;;;;4.72;3.97;;;;;;;;;;4998763;28;20031;-76
2021/07/10 09:32:42;;;;;;;4.90;4.18;;;;;;;;;;4995217;28;20081;-77
2021/07/10 09:35:10;;;;;;;3.80;3.33;;;;;;;;;;4977795;28;20054;-77
2021/07/10 09:37:38;;;;;;;5.32;3.20;;;;;;;;;;5006153;28;20106;-76
2021/07/10 09:40:06;;;;;;;4.18;3.53;;;;;;;;;;5012621;28;20108;-76
2021/07/10 09:42:33;;;;;;;8.73;4.57;;;;;;;;;;5011359;28;20136;-77
2021/07/10 09:45:00;;;;;;;3.55;3.17;;;;;;;;;;5006254;28;20036;-76
2021/07/10 09:47:30;;;;;;;3.95;3.58;;;;;;;;;;4999566;28;20479;-77
2021/07/10 09:49:57;;;;;;;3.53;3.20;;;;;;;;;;4997056;28;20130;-76
2021/07/10 09:52:24;;;;;;;4.93;3.92;;;;;;;;;;4997597;28;20022;-77
2021/07/10 09:54:52;;;;;;;5.57;4.38;;;;;;;;;;4979735;28;20054;-76
2021/07/10 09:57:19;;;;;;;6.15;4.85;;;;;;;;;;4979083;28;20022;-76
2021/07/10 09:59:50;;;;;;;4.68;4.28;;;;;;;;;;4996414;28;20023;-77
2021/07/10 10:02:18;;;;;;;4.00;3.70;;;;;;;;;;4997200;28;20032;-77
2021/07/10 10:04:44;;;;;;;7.53;5.20;;;;;;;;;;4997369;28;20520;-77
2021/07/10 10:07:12;;;;;;;7.45;5.57;;;;;;;;;;4997173;28;20029;-76
2021/07/10 10:09:38;;;;;;;3.97;3.65;;;;;;;;;;5001536;28;20033;-77
2021/07/10 10:12:06;;;;;;;5.05;4.10;;;;;;;;;;5004603;28;20105;-77
2021/07/10 10:14:35;;;;;;;6.43;5.22;;;;;;;;;;4996727;28;20022;-77
2021/07/10 10:17:02;;;;;;;4.35;3.95;;;;;;;;;;4996706;28;20309;-77
2021/07/10 10:19:32;;;;;;;7.80;5.10;;;;;;;;;;4996856;28;20462;-75
2021/07/10 10:22:00;;;;;;;5.72;4.47;;;;;;;;;;4997003;28;20464;-76
2021/07/10 10:24:31;;;;;;;4.20;3.83;;;;;;;;;;4978788;28;20138;-77
2021/07/10 10:26:58;;;;;;;4.10;3.50;;;;;;;;;;4996642;28;20026;-77
2021/07/10 10:29:25;;;;;;;5.15;4.65;;;;;;;;;;4978096;28;20037;-76
2021/07/10 10:31:52;;;;;;;9.98;4.20;;;;;;;;;;4995703;28;20062;-77
2021/07/10 10:34:18;;;;;;;7.70;3.38;;;;;;;;;;4995522;28;20030;-76
2021/07/10 10:36:46;;;;;;;5.05;3.30;;;;;;;;;;4977426;28;20040;-76
2021/07/10 10:39:16;;;;;;;4.10;3.40;;;;;;;;;;4980087;28;20443;-76
2021/07/10 10:41:44;;;;;;;4.05;3.38;;;;;;;;;;5006373;28;20108;-76
2021/07/10 10:44:11;;;;;;;4.22;3.78;;;;;;;;;;4997119;28;20030;-76
2021/07/10 10:46:48;;;;;;;5.40;4.85;;;;;;;;;;4978080;28;20052;-77
2021/07/10 10:49:32;;;;;;;5.18;4.55;;;;;;;;;;4995415;28;20030;-77
2021/07/10 10:52:17;;;;;;;6.78;5.63;;;;;;;;;;4996097;28;20033;-76
2021/07/10 10:54:59;;;;;;;4.43;4.03;;;;;;;;;;4995791;28;20054;-77
2021/07/10 10:57:36;;;;;;;4.63;4.22;;;;;;;;;;4977175;28;20057;-76
2021/07/10 11:00:17;;;;;;;5.18;4.68;;;;;;;;;;4994128;28;20033;-77
2021/07/10 11:03:01;;;;;;;3.83;3.45;;;;;;;;;;4994805;28;20105;-75
2021/07/10 11:05:30;;;;;;;4.10;3.70;;;;;;;;;;4994887;28;20498;-77
2021/07/10 11:08:15;;;;;;;4.43;4.03;;;;;;;;;;4993793;28;20056;-76
2021/07/10 11:10:41;;;;;;;5.93;4.05;;;;;;;;;;4997187;28;20033;-76
2021/07/10 11:13:26;;;;;;;5.22;3.33;;;;;;;;;;4999907;28;20050;-77
2021/07/10 11:16:03;;;;;;;3.42;3.22;;;;;;;;;;4993883;28;20030;-77
2021/07/10 11:18:29;;;;;;;3.80;3.30;;;;;;;;;;4993907;28;20030;-77
2021/07/10 11:20:58;;;;;;;4.00;3.65;;;;;;;;;;4994400;28;20054;-77
2021/07/10 11:23:27;;;;;;;3.97;3.67;;;;;;;;;;4997581;28;20045;-77
2021/07/10 11:25:55;;;;;;;3.53;3.22;;;;;;;;;;5012225;28;20050;-76
2021/07/10 11:28:26;;;;;;;4.22;3.83;;;;;;;;;;4994362;28;20027;-76
2021/07/10 11:30:53;;;;;;;4.47;3.83;;;;;;;;;;4994671;28;20023;-77
2021/07/10 11:33:39;;;;;;;4.85;3.75;;;;;;;;;;4994933;28;20385;-76
2021/07/10 11:36:25;;;;;;;3.60;3.28;;;;;;;;;;4947712;28;20031;-76
2021/07/10 11:38:51;;;;;;;3.50;3.20;;;;;;;;;;4994119;28;20348;-77
2021/07/10 11:41:27;;;;;;;3.30;2.97;;;;;;;;;;5006008;28;20102;-76
2021/07/10 11:44:10;;;;;;;5.03;3.95;;;;;;;;;;5003901;28;20110;-76
2021/07/10 11:46:55;;;;;;;3.05;2.85;;;;;;;;;;4983686;28;20027;-76
2021/07/10 11:49:39;;;;;;;4.35;3.95;;;;;;;;;;4994632;28;20360;-76
2021/07/10 11:52:05;;;;;;;4.35;3.85;;;;;;;;;;4994703;28;20383;-75
2021/07/10 11:54:32;;;;;;;4.00;3.70;;;;;;;;;;4994712;28;20491;-76
2021/07/10 11:56:59;;;;;;;5.95;3.70;;;;;;;;;;4981340;28;20050;-76
2021/07/10 11:59:25;;;;;;;3.42;3.22;;;;;;;;;;4994117;28;20026;-77
2021/07/10 12:01:51;;;;;;;4.20;3.75;;;;;;;;;;5010527;28;20030;-77
2021/07/10 12:04:17;;;;;;;4.68;3.78;;;;;;;;;;4995752;28;20034;-76
2021/07/10 12:06:43;;;;;;;3.88;3.58;;;;;;;;;;4996543;28;20139;-76
2021/07/10 12:09:09;;;;;;;4.82;2.90;;;;;;;;;;4997869;28;20506;-76
2021/07/10 12:11:35;;;;;;;8.10;3.58;;;;;;;;;;5006446;28;20109;-76
2021/07/10 12:14:08;;;;;;;6.72;2.90;;;;;;;;;;5011199;28;20053;-77
2021/07/10 12:16:34;;;;;;;3.10;2.90;;;;;;;;;;4995186;28;20026;-77
2021/07/10 12:19:00;;;;;;;4.63;3.45;;;;;;;;;;4976885;28;20414;-76
2021/07/10 12:21:27;;;;;;;3.20;2.90;;;;;;;;;;4995477;28;20069;-76
2021/07/10 12:23:55;;;;;;;3.08;2.85;;;;;;;;;;4977373;28;20038;-76
2021/07/10 12:26:22;;;;;;;3.10;2.80;;;;;;;;;;4994754;28;20137;-77
2021/07/10 12:28:57;;;;;;;2.97;2.78;;;;;;;;;;4994615;28;20095;-77
2021/07/10 12:31:27;;;;;;;3.60;3.30;;;;;;;;;;4994207;28;20105;-77
2021/07/10 12:33:54;;;;;;;3.58;2.80;;;;;;;;;;4977373;28;20364;-76
2021/07/10 12:36:31;;;;;;;3.28;2.90;;;;;;;;;;4994755;28;20120;-75
2021/07/10 12:38:57;;;;;;;3.42;2.58;;;;;;;;;;4995016;28;20033;-76
2021/07/10 12:41:25;;;;;;;2.72;2.42;;;;;;;;;;5001743;28;20037;-76
2021/07/10 12:43:51;;;;;;;4.53;2.63;;;;;;;;;;4976662;28;20458;-77
2021/07/10 12:46:18;;;;;;;2.90;2.70;;;;;;;;;;4993853;28;20091;-76
2021/07/10 12:48:44;;;;;;;2.38;2.20;;;;;;;;;;4993964;28;20080;-76
2021/07/10 12:51:11;;;;;;;2.63;2.28;;;;;;;;;;4994078;28;20054;-77
2021/07/10 12:53:38;;;;;;;2.95;2.70;;;;;;;;;;4994433;28;20030;-76
2021/07/10 12:59:05;;;;;;;4.80;3.05;;;;;;;;;;4995313;28;20130;-76
2021/07/10 13:01:31;;;;;;;3.47;2.63;;;;;;;;;;4998119;28;20022;-77
2021/07/10 13:03:57;;;;;;;4.28;2.97;;;;;;;;;;4980493;28;20057;-76
2021/07/10 13:06:28;;;;;;;3.17;2.90;;;;;;;;;;4997174;28;20034;-76
2021/07/10 13:08:56;;;;;;;3.33;3.03;;;;;;;;;;5000348;28;20121;-74
2021/07/10 13:11:23;;;;;;;4.05;2.42;;;;;;;;;;5014178;28;20026;-75
2021/07/10 13:13:53;;;;;;;2.70;2.50;;;;;;;;;;5003621;28;20033;-77
2021/07/10 13:16:19;;;;;;;2.97;2.78;;;;;;;;;;5010983;28;20034;-76
2021/07/10 13:18:53;;;;;;;5.38;3.67;;;;;;;;;;4997296;28;20053;-76
2021/07/10 13:21:26;;;;;;;3.00;2.70;;;;;;;;;;4997905;28;20038;-76
2021/07/10 13:23:55;;;;;;;3.03;2.83;;;;;;;;;;4997271;28;20034;-76
2021/07/10 13:26:25;;;;;;;2.30;2.20;;;;;;;;;;4997770;28;20483;-76
2021/07/10 13:28:57;;;;;;;2.75;2.55;;;;;;;;;;4998332;28;20030;-76
2021/07/10 13:31:25;;;;;;;2.42;2.22;;;;;;;;;;4997131;28;20036;-76
2021/07/10 13:33:53;;;;;;;2.97;2.78;;;;;;;;;;4996672;28;20135;-76
2021/07/10 13:36:19;;;;;;;7.55;2.90;;;;;;;;;;4996476;28;20026;-76
2021/07/10 13:38:46;;;;;;;2.67;2.47;;;;;;;;;;4995944;28;20038;-76
2021/07/10 13:41:23;;;;;;;2.67;2.47;;;;;;;;;;5006418;28;20038;-76
2021/07/10 13:44:01;;;;;;;2.58;2.47;;;;;;;;;;4996451;28;20026;-76
2021/07/10 13:46:32;;;;;;;3.30;2.85;;;;;;;;;;4996244;28;20023;-76
2021/07/10 13:48:59;;;;;;;2.67;2.40;;;;;;;;;;4995587;28;20266;-76
2021/07/10 13:51:25;;;;;;;2.67;2.47;;;;;;;;;;4996552;28;20069;-76
2021/07/10 13:53:52;;;;;;;2.70;2.50;;;;;;;;;;4996142;28;20184;-77
2021/07/10 13:56:19;;;;;;;3.42;2.53;;;;;;;;;;4996569;28;20033;-75
2021/07/10 13:59:02;;;;;;;2.60;2.40;;;;;;;;;;4995931;28;20482;-76
2021/07/10 14:01:28;;;;;;;3.28;2.80;;;;;;;;;;4997654;28;20026;-76
2021/07/10 14:03:54;;;;;;;2.83;2.63;;;;;;;;;;4979062;28;20034;-76
2021/07/10 14:06:20;;;;;;;2.50;2.17;;;;;;;;;;4978629;28;20026;-76
2021/07/10 14:08:46;;;;;;;4.70;2.95;;;;;;;;;;4996518;28;20034;-76
2021/07/10 14:11:12;;;;;;;2.80;2.60;;;;;;;;;;5004208;28;20038;-75
2021/07/10 14:13:39;;;;;;;2.45;2.25;;;;;;;;;;5016655;28;20018;-76
2021/07/10 14:16:05;;;;;;;3.25;2.65;;;;;;;;;;5003001;28;20026;-76
2021/07/10 14:18:31;;;;;;;3.83;2.88;;;;;;;;;;4996119;28;20048;-78
2021/07/10 14:20:57;;;;;;;4.57;2.72;;;;;;;;;;4995731;28;20492;-77
2021/07/10 14:23:25;;;;;;;3.75;2.70;;;;;;;;;;4995810;28;20054;-77
2021/07/10 14:25:51;;;;;;;3.00;2.70;;;;;;;;;;4993134;28;20160;-76
2021/07/10 14:28:17;;;;;;;2.58;2.40;;;;;;;;;;4994691;28;20030;-76
2021/07/10 14:30:44;;;;;;;2.70;2.50;;;;;;;;;;4975491;28;20023;-76
2021/07/10 14:33:10;;;;;;;2.90;2.53;;;;;;;;;;4995765;28;20474;-77
2021/07/10 14:35:36;;;;;;;2.33;2.22;;;;;;;;;;4996051;28;20019;-76
2021/07/10 14:38:04;;;;;;;2.58;2.38;;;;;;;;;;4977921;28;20034;-76
2021/07/10 14:40:31;;;;;;;2.55;2.45;;;;;;;;;;5004476;28;20387;-75
2021/07/10 14:42:57;;;;;;;2.97;2.65;;;;;;;;;;5012331;28;20050;-75
2021/07/10 14:45:24;;;;;;;2.75;2.55;;;;;;;;;;5014884;28;20021;-76
2021/07/10 14:47:50;;;;;;;2.80;2.60;;;;;;;;;;4995442;28;20395;-76
2021/07/10 14:50:17;;;;;;;5.35;2.70;;;;;;;;;;4977711;28;20049;-76